HDAM

Djibouti-Ambouli Airport

Djibouti City, Djibouti
HDAM 160500Z 1606/1706 08010KT 9999 SCT023 BECMG 1615/1618 VRB05KT FEW020 BECMG 1700/706 00000KT SCT020
Issued Valid From Valid To
Dec-16 @ 05:00 UTC
(4 hours ago)
Dec-16 @ 06:00 UTC
(3 hours ago)
Dec-17 @ 06:00 UTC
(in 21 hours)
Dec-16 @ 06:00 to Dec-16 @ 15:00
HDAM 160500Z 1606/1706 08010KT 9999 SCT023
Wind Visibility Clouds
80° at 10 knots 10,000+ meters
  • Scattered at 2,300' AGL
Becoming Dec-16 @ 15:00 to Dec-17 @ 06:00
BECMG 1615/1618 VRB05KT FEW020
Wind Visibility Clouds
Variable at 5 knots 10,000+ meters
  • Few at 2,000' AGL
HDAM 160500Z 1606/1706 08010KT 9999 SCT023 BECMG 1615/1618 VRB05KT FEW020 BECMG 1700/706 00000KT SCT020
Issued Dec-16 @ 05:00 UTC
(4 hours ago)
Valid From Dec-16 @ 06:00 UTC
(3 hours ago)
Valid To Dec-17 @ 06:00 UTC
(in 21 hours)
Dec-16 @ 06:00 - Dec-16 @ 15:00
Wind Visibility
80° at 10 knots 10,000+ meters
Clouds
  • Scattered at 2,300' AGL
Becoming Dec-16 @ 15:00 - Dec-17 @ 06:00
Wind Visibility
Variable at 5 knots 10,000+ meters
Clouds
  • Few at 2,000' AGL